Bookmark and Share
Track history (hours):
 

Un Pendik

Last reported at 2014-Apr-23 09:22 UTC. Time now 2014-Apr-23 09:43 UTC.
Position N 39°56' E 025°57'.

Length 193 m; draft 6.3 m.

Type: Ship (hazmat cat A). MMSI: 271000792.

NotesDate/timePositionNaut miles runAvg speedWind from/ knotsBaromVisibWave heightAir tempDewpointWater temp
2014-Apr-23 09:22N 39°56' E 025°57'1518.8
2014-Apr-23 08:33N 39°43' E 025°48'2019.0
2014-Apr-23 07:31N 39°25' E 025°36'11318.9
2014-Apr-23 01:33N 37°44' E 024°31'2118.7
2014-Apr-23 00:24N 37°26' E 024°17'5919.1
2014-Apr-22 21:19N 36°40' E 023°31'1417.9
2014-Apr-22 20:32N 36°30' E 023°19'86217.9
2014-Apr-20 20:23N 42°38' E 006°29'1518.3
2014-Apr-20 19:33N 42°47' E 006°12'1716.9
2014-Apr-20 18:33N 43°01' E 005°59'7 6.8
2014-Apr-20 17:33N 43°06' E 005°54'0 0.0
2014-Apr-20 16:33N 43°06' E 005°54'0 0.0
2014-Apr-20 15:33N 43°06' E 005°54'0 0.0
2014-Apr-20 14:33N 43°06' E 005°54'0 0.0
2014-Apr-20 13:33N 43°06' E 005°54'0 0.0
2014-Apr-20 12:33N 43°06' E 005°54'0 0.0
2014-Apr-20 11:33N 43°06' E 005°54'0 0.0
2014-Apr-20 10:33N 43°06' E 005°54'0 0.0
2014-Apr-20 09:33N 43°06' E 005°54'0 0.0
2014-Apr-20 08:33N 43°06' E 005°54'0 0.0
2014-Apr-20 07:32N 43°06' E 005°54'0 0.0
2014-Apr-20 06:30N 43°06' E 005°54'0 0.1
2014-Apr-20 05:32N 43°06' E 005°54'9 9.1
2014-Apr-20 04:33N 42°59' E 006°01'1616.4
2014-Apr-20 03:33N 42°46' E 006°15'1312.9
2014-Apr-20 02:33N 42°39' E 006°29'2712.0
2014-Apr-20 00:19N 42°24' E 006°59'911.4
2014-Apr-19 23:32N 42°19' E 007°09'42817.8
2014-Apr-18 23:32N 38°41' E 015°14'1919.3
2014-Apr-18 22:32N 38°27' E 015°31'1413.5
2014-Apr-18 21:31N 38°14' E 015°38'41916.0
2014-Apr-17 19:23N 37°52' E 024°28'5 0.1
2014-Apr-16 00:21N 37°50' E 024°35'2118.6
2014-Apr-15 23:13N 37°31' E 024°23'5119.1
2014-Apr-15 20:31N 36°50' E 023°44'  

Dump ship's entire track history

sailing weather and tide predictions

Un Pendik — TCOD2 — position and weather